sensor_id;sensor_type;location;lat;lon;timestamp;P1;durP1;ratioP1;P2;durP2;ratioP2
19032;SDS011;9649;51.042;13.804;2023-09-08T00:01:41;12.38;;;6.28;;
19032;SDS011;9649;51.042;13.804;2023-09-08T00:06:44;8.45;;;5.70;;
19032;SDS011;9649;51.042;13.804;2023-09-08T00:11:49;8.30;;;5.75;;
19032;SDS011;9649;51.042;13.804;2023-09-08T00:16:52;7.78;;;5.40;;
19032;SDS011;9649;51.042;13.804;2023-09-08T00:21:56;8.85;;;5.72;;
19032;SDS011;9649;51.042;13.804;2023-09-08T00:27:01;6.85;;;5.53;;
19032;SDS011;9649;51.042;13.804;2023-09-08T00:32:04;11.45;;;6.32;;
19032;SDS011;9649;51.042;13.804;2023-09-08T00:37:07;9.60;;;5.97;;
19032;SDS011;9649;51.042;13.804;2023-09-08T00:42:12;11.20;;;6.22;;
19032;SDS011;9649;51.042;13.804;2023-09-08T00:47:15;8.55;;;6.40;;
19032;SDS011;9649;51.042;13.804;2023-09-08T00:52:18;11.90;;;5.85;;
19032;SDS011;9649;51.042;13.804;2023-09-08T00:57:22;7.53;;;5.38;;
19032;SDS011;9649;51.042;13.804;2023-09-08T01:02:25;13.27;;;6.13;;
19032;SDS011;9649;51.042;13.804;2023-09-08T01:07:29;8.88;;;5.75;;
19032;SDS011;9649;51.042;13.804;2023-09-08T01:12:35;9.65;;;5.65;;
19032;SDS011;9649;51.042;13.804;2023-09-08T01:17:38;8.27;;;5.68;;
19032;SDS011;9649;51.042;13.804;2023-09-08T01:22:45;9.80;;;5.82;;
19032;SDS011;9649;51.042;13.804;2023-09-08T01:28:05;10.48;;;5.82;;
19032;SDS011;9649;51.042;13.804;2023-09-08T01:33:09;9.70;;;5.90;;
19032;SDS011;9649;51.042;13.804;2023-09-08T01:38:12;9.25;;;5.28;;
19032;SDS011;9649;51.042;13.804;2023-09-08T01:43:16;9.85;;;5.80;;
19032;SDS011;9649;51.042;13.804;2023-09-08T01:48:19;9.20;;;5.60;;
19032;SDS011;9649;51.042;13.804;2023-09-08T01:53:22;9.77;;;6.00;;
19032;SDS011;9649;51.042;13.804;2023-09-08T01:58:26;8.18;;;6.35;;
19032;SDS011;9649;51.042;13.804;2023-09-08T02:03:31;8.48;;;6.05;;
19032;SDS011;9649;51.042;13.804;2023-09-08T02:08:34;10.38;;;6.03;;
19032;SDS011;9649;51.042;13.804;2023-09-08T02:13:40;7.47;;;5.65;;
19032;SDS011;9649;51.042;13.804;2023-09-08T02:18:44;7.57;;;5.85;;
19032;SDS011;9649;51.042;13.804;2023-09-08T02:23:47;11.32;;;5.78;;
19032;SDS011;9649;51.042;13.804;2023-09-08T02:28:51;9.85;;;5.63;;
19032;SDS011;9649;51.042;13.804;2023-09-08T02:33:54;12.57;;;6.75;;
19032;SDS011;9649;51.042;13.804;2023-09-08T02:38:57;13.75;;;6.10;;
19032;SDS011;9649;51.042;13.804;2023-09-08T02:44:02;11.82;;;5.85;;
19032;SDS011;9649;51.042;13.804;2023-09-08T02:49:05;8.65;;;6.18;;
19032;SDS011;9649;51.042;13.804;2023-09-08T02:54:08;8.27;;;5.75;;
19032;SDS011;9649;51.042;13.804;2023-09-08T02:59:12;11.23;;;5.95;;
19032;SDS011;9649;51.042;13.804;2023-09-08T03:04:15;9.20;;;5.88;;
19032;SDS011;9649;51.042;13.804;2023-09-08T03:09:18;8.68;;;5.95;;
19032;SDS011;9649;51.042;13.804;2023-09-08T03:14:23;8.85;;;5.80;;
19032;SDS011;9649;51.042;13.804;2023-09-08T03:19:25;12.48;;;6.30;;
19032;SDS011;9649;51.042;13.804;2023-09-08T03:24:28;9.02;;;6.15;;
19032;SDS011;9649;51.042;13.804;2023-09-08T03:29:32;8.18;;;6.00;;
19032;SDS011;9649;51.042;13.804;2023-09-08T03:34:35;9.77;;;6.05;;
19032;SDS011;9649;51.042;13.804;2023-09-08T03:39:40;7.78;;;5.72;;
19032;SDS011;9649;51.042;13.804;2023-09-08T03:44:45;10.73;;;5.85;;
19032;SDS011;9649;51.042;13.804;2023-09-08T03:49:48;8.00;;;5.95;;
19032;SDS011;9649;51.042;13.804;2023-09-08T03:54:50;10.85;;;6.13;;
19032;SDS011;9649;51.042;13.804;2023-09-08T03:59:55;9.70;;;6.38;;
19032;SDS011;9649;51.042;13.804;2023-09-08T04:04:58;9.27;;;6.68;;
19032;SDS011;9649;51.042;13.804;2023-09-08T04:10:01;8.65;;;6.10;;
19032;SDS011;9649;51.042;13.804;2023-09-08T04:15:06;10.35;;;6.38;;
19032;SDS011;9649;51.042;13.804;2023-09-08T04:20:10;8.05;;;6.22;;
19032;SDS011;9649;51.042;13.804;2023-09-08T04:25:16;9.65;;;6.22;;
19032;SDS011;9649;51.042;13.804;2023-09-08T04:30:20;9.05;;;6.47;;
19032;SDS011;9649;51.042;13.804;2023-09-08T04:35:23;9.10;;;6.43;;
19032;SDS011;9649;51.042;13.804;2023-09-08T04:40:26;8.52;;;6.55;;
19032;SDS011;9649;51.042;13.804;2023-09-08T04:45:31;9.63;;;6.50;;
19032;SDS011;9649;51.042;13.804;2023-09-08T04:50:35;10.57;;;6.82;;
19032;SDS011;9649;51.042;13.804;2023-09-08T04:55:37;9.95;;;6.72;;
19032;SDS011;9649;51.042;13.804;2023-09-08T05:00:42;11.18;;;6.65;;
19032;SDS011;9649;51.042;13.804;2023-09-08T05:05:44;9.60;;;7.10;;
19032;SDS011;9649;51.042;13.804;2023-09-08T05:10:47;12.68;;;7.63;;
19032;SDS011;9649;51.042;13.804;2023-09-08T05:15:52;9.55;;;6.85;;
19032;SDS011;9649;51.042;13.804;2023-09-08T05:21:01;14.02;;;7.15;;
19032;SDS011;9649;51.042;13.804;2023-09-08T05:26:06;12.15;;;6.72;;
19032;SDS011;9649;51.042;13.804;2023-09-08T05:31:11;9.93;;;6.53;;
19032;SDS011;9649;51.042;13.804;2023-09-08T05:36:14;18.50;;;7.13;;
19032;SDS011;9649;51.042;13.804;2023-09-08T05:41:19;10.60;;;6.50;;
19032;SDS011;9649;51.042;13.804;2023-09-08T05:46:25;10.43;;;6.63;;
19032;SDS011;9649;51.042;13.804;2023-09-08T05:51:33;11.18;;;6.60;;
19032;SDS011;9649;51.042;13.804;2023-09-08T05:56:39;13.02;;;6.78;;
19032;SDS011;9649;51.042;13.804;2023-09-08T06:01:44;10.55;;;6.25;;
19032;SDS011;9649;51.042;13.804;2023-09-08T06:06:47;10.85;;;5.57;;
19032;SDS011;9649;51.042;13.804;2023-09-08T06:11:50;9.07;;;5.95;;
19032;SDS011;9649;51.042;13.804;2023-09-08T06:16:57;9.50;;;6.40;;
19032;SDS011;9649;51.042;13.804;2023-09-08T06:22:00;13.75;;;6.35;;
19032;SDS011;9649;51.042;13.804;2023-09-08T06:27:03;10.25;;;5.82;;
19032;SDS011;9649;51.042;13.804;2023-09-08T06:32:08;8.05;;;5.82;;
19032;SDS011;9649;51.042;13.804;2023-09-08T06:37:13;15.82;;;6.00;;
19032;SDS011;9649;51.042;13.804;2023-09-08T06:42:16;11.27;;;5.65;;
19032;SDS011;9649;51.042;13.804;2023-09-08T06:47:21;11.20;;;5.63;;
19032;SDS011;9649;51.042;13.804;2023-09-08T06:52:24;9.98;;;5.43;;
19032;SDS011;9649;51.042;13.804;2023-09-08T06:57:29;8.30;;;5.43;;
19032;SDS011;9649;51.042;13.804;2023-09-08T07:02:33;7.30;;;5.13;;
19032;SDS011;9649;51.042;13.804;2023-09-08T07:07:37;6.93;;;5.10;;
19032;SDS011;9649;51.042;13.804;2023-09-08T07:12:41;8.20;;;5.32;;
19032;SDS011;9649;51.042;13.804;2023-09-08T07:17:45;8.70;;;5.03;;
19032;SDS011;9649;51.042;13.804;2023-09-08T07:22:48;9.75;;;5.20;;
19032;SDS011;9649;51.042;13.804;2023-09-08T07:27:51;14.88;;;9.48;;
19032;SDS011;9649;51.042;13.804;2023-09-08T07:32:56;8.32;;;5.65;;
19032;SDS011;9649;51.042;13.804;2023-09-08T07:37:59;7.80;;;5.00;;
19032;SDS011;9649;51.042;13.804;2023-09-08T07:43:04;8.98;;;5.13;;
19032;SDS011;9649;51.042;13.804;2023-09-08T07:48:09;8.80;;;4.97;;
19032;SDS011;9649;51.042;13.804;2023-09-08T07:53:12;7.57;;;4.78;;
19032;SDS011;9649;51.042;13.804;2023-09-08T07:58:15;7.13;;;4.63;;
19032;SDS011;9649;51.042;13.804;2023-09-08T08:03:20;9.30;;;4.50;;
19032;SDS011;9649;51.042;13.804;2023-09-08T08:08:23;7.47;;;4.38;;
19032;SDS011;9649;51.042;13.804;2023-09-08T08:13:26;7.85;;;4.65;;
19032;SDS011;9649;51.042;13.804;2023-09-08T08:18:30;6.80;;;4.18;;
19032;SDS011;9649;51.042;13.804;2023-09-08T08:23:34;6.40;;;4.00;;
19032;SDS011;9649;51.042;13.804;2023-09-08T08:28:40;8.73;;;4.32;;
19032;SDS011;9649;51.042;13.804;2023-09-08T08:33:44;8.48;;;4.28;;
19032;SDS011;9649;51.042;13.804;2023-09-08T08:38:47;7.43;;;3.88;;
19032;SDS011;9649;51.042;13.804;2023-09-08T08:43:51;6.55;;;3.70;;
19032;SDS011;9649;51.042;13.804;2023-09-08T08:48:57;5.75;;;3.78;;
19032;SDS011;9649;51.042;13.804;2023-09-08T08:54:02;4.85;;;3.70;;
19032;SDS011;9649;51.042;13.804;2023-09-08T08:59:06;6.63;;;3.50;;
19032;SDS011;9649;51.042;13.804;2023-09-08T09:04:17;6.43;;;3.55;;
19032;SDS011;9649;51.042;13.804;2023-09-08T09:09:29;5.53;;;3.63;;
19032;SDS011;9649;51.042;13.804;2023-09-08T09:14:44;5.53;;;3.75;;
19032;SDS011;9649;51.042;13.804;2023-09-08T09:19:50;4.50;;;3.42;;
19032;SDS011;9649;51.042;13.804;2023-09-08T09:25:21;5.65;;;3.55;;
19032;SDS011;9649;51.042;13.804;2023-09-08T09:30:45;11.52;;;4.10;;
19032;SDS011;9649;51.042;13.804;2023-09-08T09:35:51;7.28;;;3.63;;
19032;SDS011;9649;51.042;13.804;2023-09-08T09:40:55;7.93;;;3.88;;
19032;SDS011;9649;51.042;13.804;2023-09-08T09:45:59;5.40;;;3.50;;
19032;SDS011;9649;51.042;13.804;2023-09-08T09:51:16;8.73;;;3.78;;
19032;SDS011;9649;51.042;13.804;2023-09-08T09:56:20;9.20;;;3.85;;
19032;SDS011;9649;51.042;13.804;2023-09-08T10:01:25;5.53;;;3.47;;
19032;SDS011;9649;51.042;13.804;2023-09-08T10:06:32;6.72;;;3.40;;
19032;SDS011;9649;51.042;13.804;2023-09-08T10:11:41;6.47;;;3.53;;
19032;SDS011;9649;51.042;13.804;2023-09-08T10:16:50;7.13;;;3.40;;
19032;SDS011;9649;51.042;13.804;2023-09-08T10:22:02;5.47;;;3.90;;
19032;SDS011;9649;51.042;13.804;2023-09-08T10:27:08;10.60;;;3.70;;
19032;SDS011;9649;51.042;13.804;2023-09-08T10:32:12;6.88;;;3.50;;
19032;SDS011;9649;51.042;13.804;2023-09-08T10:37:20;6.10;;;3.42;;
19032;SDS011;9649;51.042;13.804;2023-09-08T10:42:26;7.05;;;3.35;;
19032;SDS011;9649;51.042;13.804;2023-09-08T10:47:31;6.78;;;3.28;;
19032;SDS011;9649;51.042;13.804;2023-09-08T10:52:37;5.22;;;3.33;;
19032;SDS011;9649;51.042;13.804;2023-09-08T10:57:44;4.50;;;3.42;;
19032;SDS011;9649;51.042;13.804;2023-09-08T11:02:48;9.02;;;3.42;;
19032;SDS011;9649;51.042;13.804;2023-09-08T11:07:53;5.55;;;3.30;;
19032;SDS011;9649;51.042;13.804;2023-09-08T11:12:56;5.32;;;3.25;;
19032;SDS011;9649;51.042;13.804;2023-09-08T11:18:04;8.50;;;3.40;;
19032;SDS011;9649;51.042;13.804;2023-09-08T11:23:10;7.05;;;3.20;;
19032;SDS011;9649;51.042;13.804;2023-09-08T11:28:13;8.65;;;3.50;;
19032;SDS011;9649;51.042;13.804;2023-09-08T11:33:18;7.65;;;3.75;;
19032;SDS011;9649;51.042;13.804;2023-09-08T11:38:27;4.30;;;3.30;;
19032;SDS011;9649;51.042;13.804;2023-09-08T11:43:36;6.00;;;3.70;;
19032;SDS011;9649;51.042;13.804;2023-09-08T11:48:39;6.00;;;3.38;;
19032;SDS011;9649;51.042;13.804;2023-09-08T11:53:44;6.65;;;3.53;;
19032;SDS011;9649;51.042;13.804;2023-09-08T11:58:47;7.30;;;4.00;;
19032;SDS011;9649;51.042;13.804;2023-09-08T12:03:51;5.75;;;3.15;;
19032;SDS011;9649;51.042;13.804;2023-09-08T12:08:56;5.85;;;3.80;;
19032;SDS011;9649;51.042;13.804;2023-09-08T12:14:05;5.60;;;3.42;;
19032;SDS011;9649;51.042;13.804;2023-09-08T12:24:49;5.75;;;3.20;;
19032;SDS011;9649;51.042;13.804;2023-09-08T12:29:59;6.82;;;3.40;;
19032;SDS011;9649;51.042;13.804;2023-09-08T12:35:03;6.05;;;3.20;;
19032;SDS011;9649;51.042;13.804;2023-09-08T12:40:09;5.50;;;3.28;;
19032;SDS011;9649;51.042;13.804;2023-09-08T12:45:12;4.05;;;3.40;;
19032;SDS011;9649;51.042;13.804;2023-09-08T12:50:16;5.63;;;3.30;;
19032;SDS011;9649;51.042;13.804;2023-09-08T12:55:20;6.28;;;3.55;;
19032;SDS011;9649;51.042;13.804;2023-09-08T13:00:23;11.40;;;3.50;;
19032;SDS011;9649;51.042;13.804;2023-09-08T13:05:27;5.20;;;3.22;;
19032;SDS011;9649;51.042;13.804;2023-09-08T13:10:34;4.25;;;3.40;;
19032;SDS011;9649;51.042;13.804;2023-09-08T13:15:37;4.90;;;3.40;;
19032;SDS011;9649;51.042;13.804;2023-09-08T13:20:42;8.27;;;3.15;;
19032;SDS011;9649;51.042;13.804;2023-09-08T13:25:47;4.03;;;3.22;;
19032;SDS011;9649;51.042;13.804;2023-09-08T13:30:49;5.75;;;3.15;;
19032;SDS011;9649;51.042;13.804;2023-09-08T13:35:52;7.97;;;3.28;;
19032;SDS011;9649;51.042;13.804;2023-09-08T13:40:57;5.05;;;3.28;;
19032;SDS011;9649;51.042;13.804;2023-09-08T13:46:00;4.57;;;3.35;;
19032;SDS011;9649;51.042;13.804;2023-09-08T13:51:09;4.80;;;3.22;;
19032;SDS011;9649;51.042;13.804;2023-09-08T13:56:32;3.97;;;3.08;;
19032;SDS011;9649;51.042;13.804;2023-09-08T14:01:42;6.05;;;3.50;;
19032;SDS011;9649;51.042;13.804;2023-09-08T14:07:12;4.00;;;2.95;;
19032;SDS011;9649;51.042;13.804;2023-09-08T14:12:44;5.35;;;3.15;;
19032;SDS011;9649;51.042;13.804;2023-09-08T14:18:06;4.78;;;3.20;;
19032;SDS011;9649;51.042;13.804;2023-09-08T14:23:16;3.80;;;2.95;;
19032;SDS011;9649;51.042;13.804;2023-09-08T14:28:28;10.00;;;3.42;;
19032;SDS011;9649;51.042;13.804;2023-09-08T14:33:44;5.93;;;3.03;;
19032;SDS011;9649;51.042;13.804;2023-09-08T14:39:23;6.70;;;3.05;;
19032;SDS011;9649;51.042;13.804;2023-09-08T14:45:02;5.13;;;3.30;;
19032;SDS011;9649;51.042;13.804;2023-09-08T14:50:45;6.53;;;3.47;;
19032;SDS011;9649;51.042;13.804;2023-09-08T14:56:32;3.45;;;3.15;;
19032;SDS011;9649;51.042;13.804;2023-09-08T15:01:57;4.25;;;3.33;;
19032;SDS011;9649;51.042;13.804;2023-09-08T15:07:15;4.00;;;2.92;;
19032;SDS011;9649;51.042;13.804;2023-09-08T15:12:32;4.40;;;3.30;;
19032;SDS011;9649;51.042;13.804;2023-09-08T15:17:40;7.00;;;3.35;;
19032;SDS011;9649;51.042;13.804;2023-09-08T15:22:53;6.07;;;3.10;;
19032;SDS011;9649;51.042;13.804;2023-09-08T15:27:58;5.38;;;3.35;;
19032;SDS011;9649;51.042;13.804;2023-09-08T15:33:09;3.67;;;2.90;;
19032;SDS011;9649;51.042;13.804;2023-09-08T15:38:13;4.80;;;3.20;;
19032;SDS011;9649;51.042;13.804;2023-09-08T15:43:16;3.83;;;3.20;;
19032;SDS011;9649;51.042;13.804;2023-09-08T15:48:21;3.67;;;3.00;;
19032;SDS011;9649;51.042;13.804;2023-09-08T15:53:24;4.32;;;3.00;;
19032;SDS011;9649;51.042;13.804;2023-09-08T15:58:27;3.95;;;3.25;;
19032;SDS011;9649;51.042;13.804;2023-09-08T16:03:34;5.65;;;3.67;;
19032;SDS011;9649;51.042;13.804;2023-09-08T16:08:38;6.35;;;3.40;;
19032;SDS011;9649;51.042;13.804;2023-09-08T16:13:41;5.45;;;3.30;;
19032;SDS011;9649;51.042;13.804;2023-09-08T16:18:45;4.70;;;3.10;;
19032;SDS011;9649;51.042;13.804;2023-09-08T16:23:48;4.15;;;2.90;;
19032;SDS011;9649;51.042;13.804;2023-09-08T16:28:51;5.20;;;3.80;;
19032;SDS011;9649;51.042;13.804;2023-09-08T16:33:55;4.25;;;3.38;;
19032;SDS011;9649;51.042;13.804;2023-09-08T16:38:58;9.68;;;3.70;;
19032;SDS011;9649;51.042;13.804;2023-09-08T16:44:01;5.18;;;3.28;;
19032;SDS011;9649;51.042;13.804;2023-09-08T16:49:05;5.80;;;3.40;;
19032;SDS011;9649;51.042;13.804;2023-09-08T16:54:08;7.22;;;3.40;;
19032;SDS011;9649;51.042;13.804;2023-09-08T16:59:11;8.25;;;3.88;;
19032;SDS011;9649;51.042;13.804;2023-09-08T17:04:15;4.50;;;3.35;;
19032;SDS011;9649;51.042;13.804;2023-09-08T17:09:18;4.63;;;3.38;;
19032;SDS011;9649;51.042;13.804;2023-09-08T17:14:21;8.15;;;3.47;;
19032;SDS011;9649;51.042;13.804;2023-09-08T17:19:26;6.35;;;3.50;;
19032;SDS011;9649;51.042;13.804;2023-09-08T17:24:29;6.65;;;3.55;;
19032;SDS011;9649;51.042;13.804;2023-09-08T17:29:31;4.05;;;3.45;;
19032;SDS011;9649;51.042;13.804;2023-09-08T17:34:36;6.78;;;4.13;;
19032;SDS011;9649;51.042;13.804;2023-09-08T17:39:39;4.82;;;3.58;;
19032;SDS011;9649;51.042;13.804;2023-09-08T17:44:42;7.55;;;5.30;;
19032;SDS011;9649;51.042;13.804;2023-09-08T17:49:46;8.52;;;5.88;;
19032;SDS011;9649;51.042;13.804;2023-09-08T17:54:49;7.93;;;5.30;;
19032;SDS011;9649;51.042;13.804;2023-09-08T17:59:52;13.52;;;7.25;;
19032;SDS011;9649;51.042;13.804;2023-09-08T18:04:56;13.20;;;8.90;;
19032;SDS011;9649;51.042;13.804;2023-09-08T18:09:59;11.48;;;6.70;;
19032;SDS011;9649;51.042;13.804;2023-09-08T18:15:02;8.13;;;6.80;;
19032;SDS011;9649;51.042;13.804;2023-09-08T18:20:07;16.95;;;10.23;;
19032;SDS011;9649;51.042;13.804;2023-09-08T18:25:10;8.57;;;5.90;;
19032;SDS011;9649;51.042;13.804;2023-09-08T18:30:13;8.27;;;5.15;;
19032;SDS011;9649;51.042;13.804;2023-09-08T18:35:18;9.90;;;5.28;;
19032;SDS011;9649;51.042;13.804;2023-09-08T18:40:20;7.45;;;5.40;;
19032;SDS011;9649;51.042;13.804;2023-09-08T18:45:23;9.75;;;4.72;;
19032;SDS011;9649;51.042;13.804;2023-09-08T18:50:27;6.78;;;5.35;;
19032;SDS011;9649;51.042;13.804;2023-09-08T18:55:30;12.93;;;5.43;;
19032;SDS011;9649;51.042;13.804;2023-09-08T19:00:33;6.57;;;5.28;;
19032;SDS011;9649;51.042;13.804;2023-09-08T19:05:38;7.75;;;4.75;;
19032;SDS011;9649;51.042;13.804;2023-09-08T19:10:41;6.05;;;4.88;;
19032;SDS011;9649;51.042;13.804;2023-09-08T19:15:45;7.57;;;4.85;;
19032;SDS011;9649;51.042;13.804;2023-09-08T19:20:50;9.68;;;6.35;;
19032;SDS011;9649;51.042;13.804;2023-09-08T19:25:53;10.27;;;6.10;;
19032;SDS011;9649;51.042;13.804;2023-09-08T19:30:56;9.43;;;6.22;;
19032;SDS011;9649;51.042;13.804;2023-09-08T19:36:01;9.38;;;5.18;;
19032;SDS011;9649;51.042;13.804;2023-09-08T19:41:04;8.70;;;5.55;;
19032;SDS011;9649;51.042;13.804;2023-09-08T19:46:07;9.48;;;5.55;;
19032;SDS011;9649;51.042;13.804;2023-09-08T19:51:11;7.75;;;5.20;;
19032;SDS011;9649;51.042;13.804;2023-09-08T19:56:15;7.65;;;5.25;;
19032;SDS011;9649;51.042;13.804;2023-09-08T20:01:18;9.00;;;5.57;;
19032;SDS011;9649;51.042;13.804;2023-09-08T20:06:22;9.05;;;6.00;;
19032;SDS011;9649;51.042;13.804;2023-09-08T20:11:25;10.20;;;5.72;;
19032;SDS011;9649;51.042;13.804;2023-09-08T20:16:28;9.43;;;5.90;;
19032;SDS011;9649;51.042;13.804;2023-09-08T20:21:33;10.68;;;6.35;;
19032;SDS011;9649;51.042;13.804;2023-09-08T20:26:36;8.23;;;5.63;;
19032;SDS011;9649;51.042;13.804;2023-09-08T20:31:38;11.57;;;7.45;;
19032;SDS011;9649;51.042;13.804;2023-09-08T20:36:43;8.18;;;6.45;;
19032;SDS011;9649;51.042;13.804;2023-09-08T20:41:46;15.38;;;7.70;;
19032;SDS011;9649;51.042;13.804;2023-09-08T20:46:50;13.13;;;8.38;;
19032;SDS011;9649;51.042;13.804;2023-09-08T20:51:54;9.60;;;6.32;;
19032;SDS011;9649;51.042;13.804;2023-09-08T20:56:57;9.00;;;6.78;;
19032;SDS011;9649;51.042;13.804;2023-09-08T21:01:59;11.93;;;6.28;;
19032;SDS011;9649;51.042;13.804;2023-09-08T21:07:04;11.15;;;6.93;;
19032;SDS011;9649;51.042;13.804;2023-09-08T21:12:07;9.48;;;6.85;;
19032;SDS011;9649;51.042;13.804;2023-09-08T21:17:10;9.82;;;6.47;;
19032;SDS011;9649;51.042;13.804;2023-09-08T21:22:14;10.85;;;6.53;;
19032;SDS011;9649;51.042;13.804;2023-09-08T21:27:17;9.05;;;6.28;;
19032;SDS011;9649;51.042;13.804;2023-09-08T21:32:20;10.55;;;6.88;;
19032;SDS011;9649;51.042;13.804;2023-09-08T21:37:25;12.30;;;7.95;;
19032;SDS011;9649;51.042;13.804;2023-09-08T21:42:28;10.65;;;8.02;;
19032;SDS011;9649;51.042;13.804;2023-09-08T21:47:31;15.10;;;8.45;;
19032;SDS011;9649;51.042;13.804;2023-09-08T21:52:35;11.48;;;7.80;;
19032;SDS011;9649;51.042;13.804;2023-09-08T21:57:39;11.45;;;7.90;;
19032;SDS011;9649;51.042;13.804;2023-09-08T22:02:42;11.35;;;8.40;;
19032;SDS011;9649;51.042;13.804;2023-09-08T22:07:47;11.52;;;8.13;;
19032;SDS011;9649;51.042;13.804;2023-09-08T22:12:50;10.88;;;7.97;;
19032;SDS011;9649;51.042;13.804;2023-09-08T22:17:53;13.35;;;7.65;;
19032;SDS011;9649;51.042;13.804;2023-09-08T22:22:57;13.05;;;7.70;;
19032;SDS011;9649;51.042;13.804;2023-09-08T22:28:00;13.30;;;8.15;;
19032;SDS011;9649;51.042;13.804;2023-09-08T22:33:03;10.45;;;7.65;;
19032;SDS011;9649;51.042;13.804;2023-09-08T22:38:09;10.88;;;7.90;;
19032;SDS011;9649;51.042;13.804;2023-09-08T22:43:12;16.63;;;8.15;;
19032;SDS011;9649;51.042;13.804;2023-09-08T22:48:14;12.48;;;7.60;;
19032;SDS011;9649;51.042;13.804;2023-09-08T22:53:20;11.15;;;7.38;;
19032;SDS011;9649;51.042;13.804;2023-09-08T22:58:23;10.13;;;6.55;;
19032;SDS011;9649;51.042;13.804;2023-09-08T23:03:26;8.27;;;6.90;;
19032;SDS011;9649;51.042;13.804;2023-09-08T23:08:30;8.98;;;6.80;;
19032;SDS011;9649;51.042;13.804;2023-09-08T23:13:33;13.60;;;7.32;;
19032;SDS011;9649;51.042;13.804;2023-09-08T23:18:37;10.45;;;6.93;;
19032;SDS011;9649;51.042;13.804;2023-09-08T23:23:41;11.98;;;7.00;;
19032;SDS011;9649;51.042;13.804;2023-09-08T23:28:44;15.63;;;7.85;;
19032;SDS011;9649;51.042;13.804;2023-09-08T23:33:47;9.38;;;7.72;;
19032;SDS011;9649;51.042;13.804;2023-09-08T23:38:51;13.02;;;7.38;;
19032;SDS011;9649;51.042;13.804;2023-09-08T23:43:54;9.52;;;7.25;;
19032;SDS011;9649;51.042;13.804;2023-09-08T23:48:56;11.68;;;7.47;;
19032;SDS011;9649;51.042;13.804;2023-09-08T23:54:00;9.25;;;7.28;;
19032;SDS011;9649;51.042;13.804;2023-09-08T23:59:04;8.70;;;7.15;;
